Time;durP1;ratioP1;P1;durP2;ratioP2;P2;SDS_P1;SDS_P2;PMS_P1;PMS_P2;Temp;Humidity;BMP_temperature;BMP_pressure;BME280_temperature;BME280_humidity;BME280_pressure;Samples;Min_cycle;Max_cycle;Signal;HPM_P1;HPM_P2
2024/01/02 00:02:12;;;;;;;0.50;0.10;;;8.50;99.90;;;;;;5019307;28;20958;-72
2024/01/02 00:04:40;;;;;;;0.50;0.10;;;8.50;99.90;;;;;;5011802;28;20920;-74
2024/01/02 00:07:08;;;;;;;0.50;0.10;;;8.50;99.90;;;;;;5026358;28;20483;-73
2024/01/02 00:09:36;;;;;;;0.50;0.10;;;8.50;99.90;;;;;;5030292;28;20518;-72
2024/01/02 00:12:07;;;;;;;0.50;0.10;;;8.50;99.90;;;;;;5017963;28;20475;-71
2024/01/02 00:14:35;;;;;;;0.50;0.20;;;;;;;;;;5026559;28;20448;-71
2024/01/02 00:17:05;;;;;;;0.50;0.10;;;8.50;99.90;;;;;;5019961;28;20864;-72
2024/01/02 00:19:33;;;;;;;0.50;0.10;;;8.40;99.90;;;;;;5018033;28;20457;-72
2024/01/02 00:22:01;;;;;;;0.50;0.10;;;8.40;99.90;;;;;;5034777;28;20540;-72
2024/01/02 00:24:28;;;;;;;0.50;0.10;;;8.40;99.90;;;;;;5032308;28;20494;-72
2024/01/02 00:26:56;;;;;;;0.50;0.10;;;8.40;99.90;;;;;;5027857;28;20468;-72
2024/01/02 00:29:24;;;;;;;0.50;0.10;;;8.40;99.90;;;;;;5034659;28;20484;-72
2024/01/02 00:31:52;;;;;;;0.50;0.20;;;8.40;99.90;;;;;;5034187;28;20445;-72
2024/01/02 00:34:21;;;;;;;0.50;0.10;;;8.40;99.90;;;;;;5026224;28;20443;-72
2024/01/02 00:36:49;;;;;;;0.50;0.20;;;8.30;99.90;;;;;;5028893;28;20490;-71
2024/01/02 00:39:17;;;;;;;0.50;0.10;;;8.30;99.90;;;;;;5031136;28;20443;-73
2024/01/02 00:41:47;;;;;;;0.50;0.10;;;8.30;99.90;;;;;;5026317;28;20512;-72
2024/01/02 00:44:14;;;;;;;0.50;0.10;;;8.30;99.90;;;;;;5034004;28;20453;-72
2024/01/02 00:46:42;;;;;;;0.50;0.10;;;8.30;99.90;;;;;;5034173;28;20459;-74
2024/01/02 00:49:10;;;;;;;0.50;0.10;;;8.30;99.90;;;;;;5025374;28;20579;-72
2024/01/02 00:51:39;;;;;;;0.50;0.10;;;8.30;99.90;;;;;;5038498;28;20470;-72
2024/01/02 00:54:07;;;;;;;0.50;0.10;;;8.30;99.90;;;;;;5037740;28;20441;-72
2024/01/02 00:56:35;;;;;;;0.50;0.10;;;8.30;99.90;;;;;;5034321;28;20562;-72
2024/01/02 00:59:03;;;;;;;0.50;0.10;;;8.30;99.90;;;;;;5034781;28;20459;-72
2024/01/02 01:01:31;;;;;;;2.77;0.67;;;8.30;99.90;;;;;;5034410;28;20493;-72
2024/01/02 01:03:59;;;;;;;0.50;0.10;;;8.30;99.90;;;;;;5034313;28;20479;-72
2024/01/02 01:06:27;;;;;;;0.50;0.10;;;8.30;99.90;;;;;;5033114;28;20469;-73
2024/01/02 01:08:56;;;;;;;0.50;0.10;;;8.30;99.90;;;;;;5033195;28;20471;-72
2024/01/02 01:11:24;;;;;;;0.50;0.10;;;8.30;99.90;;;;;;5034014;28;20471;-71
2024/01/02 01:13:52;;;;;;;0.50;0.10;;;8.30;99.90;;;;;;5026989;28;20513;-71
2024/01/02 01:16:20;;;;;;;0.50;0.10;;;8.30;99.90;;;;;;5033837;28;20470;-71
2024/01/02 01:18:49;;;;;;;0.50;0.10;;;8.30;99.90;;;;;;5018151;28;20879;-72
2024/01/02 01:21:19;;;;;;;0.50;0.10;;;8.30;99.90;;;;;;5025371;28;20550;-72
2024/01/02 01:23:46;;;;;;;0.50;0.10;;;8.30;99.90;;;;;;5013524;28;20526;-72
2024/01/02 01:26:17;;;;;;;0.50;0.20;;;8.30;99.90;;;;;;5027943;28;20505;-73
2024/01/02 01:28:45;;;;;;;0.50;0.10;;;8.30;99.90;;;;;;5021618;28;21005;-71
2024/01/02 01:31:13;;;;;;;0.50;0.10;;;8.30;99.90;;;;;;5029127;28;20481;-73
2024/01/02 01:33:40;;;;;;;0.50;0.10;;;8.30;99.90;;;;;;5033259;28;20535;-72
2024/01/02 01:36:09;;;;;;;1.07;0.97;;;8.30;99.90;;;;;;5032992;28;20471;-72
2024/01/02 01:38:36;;;;;;;0.50;0.10;;;8.30;99.90;;;;;;5030771;28;20486;-72
2024/01/02 01:41:04;;;;;;;0.50;0.10;;;8.30;99.90;;;;;;5018513;28;20466;-72
2024/01/02 01:43:33;;;;;;;0.50;0.10;;;8.30;99.90;;;;;;5032811;28;20447;-71
2024/01/02 01:46:01;;;;;;;0.50;0.10;;;8.30;99.90;;;;;;5032419;28;20533;-71
2024/01/02 01:48:29;;;;;;;0.50;0.20;;;8.30;99.90;;;;;;5033168;28;20461;-71
2024/01/02 01:50:57;;;;;;;0.50;0.10;;;;;;;;;;5032686;28;20510;-73
2024/01/02 01:53:26;;;;;;;0.50;0.10;;;8.40;99.90;;;;;;5023558;28;20535;-72
2024/01/02 01:55:54;;;;;;;0.50;0.10;;;8.40;99.90;;;;;;5027232;28;20448;-72
2024/01/02 01:58:22;;;;;;;0.50;0.10;;;8.40;99.90;;;;;;5028296;28;20479;-72
2024/01/02 02:00:52;;;;;;;0.50;0.10;;;8.40;99.90;;;;;;5032134;28;20964;-72
2024/01/02 02:03:21;;;;;;;0.50;0.10;;;8.40;99.90;;;;;;5028714;28;20841;-72
2024/01/02 02:05:49;;;;;;;0.50;0.10;;;8.40;99.90;;;;;;5024470;28;20444;-72
2024/01/02 02:08:17;;;;;;;0.50;0.10;;;8.40;99.90;;;;;;5021786;28;20468;-71
2024/01/02 02:10:45;;;;;;;0.50;0.10;;;8.40;99.90;;;;;;5025249;28;20480;-72
2024/01/02 02:13:13;;;;;;;0.50;0.10;;;8.40;99.90;;;;;;5025213;28;20448;-72
2024/01/02 02:15:42;;;;;;;0.50;0.10;;;8.40;99.90;;;;;;5024039;28;20458;-72
2024/01/02 02:18:11;;;;;;;0.50;0.10;;;8.40;99.90;;;;;;5030561;28;20858;-72
2024/01/02 02:20:39;;;;;;;0.50;0.10;;;8.40;99.90;;;;;;5025016;28;20472;-72
2024/01/02 02:23:09;;;;;;;0.50;0.10;;;8.50;99.90;;;;;;5028281;28;20443;-72
2024/01/02 02:25:37;;;;;;;0.50;0.10;;;;;;;;;;5027469;28;20951;-72
2024/01/02 02:28:05;;;;;;;0.50;0.10;;;8.50;99.90;;;;;;5024284;28;20478;-72
2024/01/02 02:30:34;;;;;;;0.50;0.10;;;8.50;99.90;;;;;;5026372;28;20473;-71
2024/01/02 02:33:02;;;;;;;0.50;0.10;;;8.50;99.90;;;;;;5027847;28;20465;-71
2024/01/02 02:35:30;;;;;;;0.50;0.10;;;8.40;99.90;;;;;;5023235;28;20450;-71
2024/01/02 02:37:58;;;;;;;0.50;0.10;;;8.40;99.90;;;;;;5023304;28;20537;-72
2024/01/02 02:40:28;;;;;;;0.50;0.10;;;8.40;99.90;;;;;;5025029;28;20466;-71
2024/01/02 02:42:56;;;;;;;0.50;0.10;;;8.40;99.90;;;;;;5023473;28;20456;-72
2024/01/02 02:45:24;;;;;;;0.50;0.10;;;8.40;99.90;;;;;;5026028;28;21012;-72
2024/01/02 02:47:52;;;;;;;0.50;0.10;;;8.40;99.90;;;;;;5026790;28;20486;-72
2024/01/02 02:50:20;;;;;;;0.50;0.10;;;8.40;99.90;;;;;;5021669;28;20545;-72
2024/01/02 02:52:48;;;;;;;0.50;0.10;;;8.40;99.90;;;;;;5030762;28;20440;-74
2024/01/02 02:55:16;;;;;;;0.50;0.10;;;8.40;99.90;;;;;;5028607;28;20542;-71
2024/01/02 02:57:45;;;;;;;0.50;0.10;;;8.40;99.90;;;;;;5066007;22;20488;-75
2024/01/02 03:00:14;;;;;;;0.50;0.20;;;8.30;99.90;;;;;;5043770;28;20474;-75
2024/01/02 03:02:41;;;;;;;0.50;0.10;;;8.30;99.90;;;;;;5043724;28;20533;-75
2024/01/02 03:05:10;;;;;;;0.50;0.10;;;8.30;99.90;;;;;;5044644;28;20446;-75
2024/01/02 03:07:41;;;;;;;0.50;0.10;;;8.30;99.90;;;;;;5041667;28;20936;-75
2024/01/02 03:10:10;;;;;;;0.50;0.10;;;8.30;99.90;;;;;;5044231;28;20457;-74
2024/01/02 03:12:38;;;;;;;0.50;0.10;;;8.30;99.90;;;;;;5046237;28;20494;-75
2024/01/02 03:15:09;;;;;;;0.50;0.10;;;8.30;99.90;;;;;;5044669;28;20480;-74
2024/01/02 03:17:37;;;;;;;0.50;0.10;;;8.30;99.90;;;;;;5045266;28;20450;-75
2024/01/02 03:20:06;;;;;;;0.50;0.10;;;8.30;99.90;;;;;;5044281;28;20921;-74
2024/01/02 03:22:34;;;;;;;0.50;0.10;;;8.30;99.90;;;;;;5042137;28;20467;-75
2024/01/02 03:25:03;;;;;;;0.50;0.10;;;8.30;99.90;;;;;;5043008;28;20538;-75
2024/01/02 03:27:31;;;;;;;0.50;0.10;;;8.30;99.90;;;;;;5040020;28;20459;-75
2024/01/02 03:29:59;;;;;;;0.50;0.10;;;8.30;99.90;;;;;;5049400;28;20473;-75
2024/01/02 03:32:29;;;;;;;0.50;0.10;;;8.30;99.90;;;;;;5038999;28;20526;-75
2024/01/02 03:34:57;;;;;;;0.50;0.10;;;8.30;99.90;;;;;;5041113;28;20454;-75
2024/01/02 03:37:25;;;;;;;0.50;0.10;;;8.30;99.90;;;;;;5042156;28;20479;-75
2024/01/02 03:39:53;;;;;;;0.50;0.10;;;8.30;99.90;;;;;;5035464;28;20492;-74
2024/01/02 03:42:21;;;;;;;0.50;0.10;;;8.30;99.90;;;;;;5051933;28;20438;-74
2024/01/02 03:44:49;;;;;;;0.50;0.10;;;8.20;99.90;;;;;;5043545;28;20435;-74
2024/01/02 03:47:17;;;;;;;0.80;0.30;;;8.30;99.90;;;;;;5045340;28;20894;-74
2024/01/02 03:49:47;;;;;;;0.50;0.10;;;8.30;99.90;;;;;;5036737;28;20439;-74
2024/01/02 03:52:14;;;;;;;0.50;0.10;;;8.20;99.90;;;;;;5035656;28;20562;-75
2024/01/02 03:54:42;;;;;;;0.50;0.10;;;8.20;99.90;;;;;;5051721;28;20501;-75
2024/01/02 03:57:10;;;;;;;0.50;0.10;;;8.20;99.90;;;;;;5035308;28;20476;-74
2024/01/02 03:59:38;;;;;;;0.50;0.10;;;8.20;99.90;;;;;;5043745;28;20472;-75
2024/01/02 04:02:06;;;;;;;0.50;0.10;;;8.20;99.90;;;;;;5040657;28;20442;-74
2024/01/02 04:04:35;;;;;;;0.50;0.10;;;8.20;99.90;;;;;;5046879;28;20501;-76
2024/01/02 04:07:04;;;;;;;0.50;0.10;;;8.20;99.90;;;;;;5041199;28;20470;-76
2024/01/02 04:09:32;;;;;;;0.50;0.10;;;8.20;99.90;;;;;;5048009;28;20495;-74
2024/01/02 04:12:00;;;;;;;0.50;0.10;;;8.40;99.90;;;;;;5051428;28;20487;-73
2024/01/02 04:14:28;;;;;;;0.50;0.10;;;9.50;99.90;;;;;;5054432;28;20469;-73
2024/01/02 04:16:56;;;;;;;0.50;0.10;;;8.20;99.90;;;;;;5050301;28;20914;-74
2024/01/02 04:19:24;;;;;;;0.50;0.10;;;8.20;99.90;;;;;;5045652;28;20451;-74
2024/01/02 04:21:52;;;;;;;0.50;0.10;;;8.20;99.90;;;;;;5053430;28;20446;-73
2024/01/02 04:24:23;;;;;;;0.50;0.10;;;8.10;99.90;;;;;;5054590;28;20687;-74
2024/01/02 04:26:51;;;;;;;0.50;0.10;;;8.10;99.90;;;;;;5037684;28;20463;-75
2024/01/02 04:29:19;;;;;;;0.50;0.10;;;8.10;99.90;;;;;;5049263;28;20498;-76
2024/01/02 04:31:47;;;;;;;0.50;0.10;;;8.10;99.90;;;;;;5044497;28;20478;-75
2024/01/02 04:34:15;;;;;;;0.50;0.10;;;8.10;99.90;;;;;;5043119;28;20455;-76
2024/01/02 04:36:45;;;;;;;0.50;0.20;;;8.10;99.90;;;;;;5042766;28;21004;-74
2024/01/02 04:39:13;;;;;;;0.50;0.10;;;8.10;99.90;;;;;;5040223;28;20525;-75
2024/01/02 04:41:42;;;;;;;0.50;0.10;;;8.10;99.90;;;;;;5037851;28;20535;-75
2024/01/02 04:44:10;;;;;;;0.50;0.10;;;8.10;99.90;;;;;;5045818;28;20462;-75
2024/01/02 04:46:38;;;;;;;0.50;0.10;;;8.00;99.90;;;;;;5044017;28;20838;-74
2024/01/02 04:49:05;;;;;;;0.50;0.10;;;8.00;99.90;;;;;;5039437;28;20531;-76
2024/01/02 04:51:34;;;;;;;0.50;0.10;;;8.10;99.90;;;;;;5045627;28;20487;-75
2024/01/02 04:54:02;;;;;;;0.50;0.10;;;8.10;99.90;;;;;;5042544;28;20480;-74
2024/01/02 04:56:29;;;;;;;0.50;0.10;;;8.10;99.90;;;;;;5041785;28;20551;-74
2024/01/02 04:58:59;;;;;;;0.50;0.10;;;8.10;99.90;;;;;;5042385;28;20955;-75
2024/01/02 05:01:27;;;;;;;0.50;0.10;;;8.10;99.90;;;;;;5049842;28;21185;-74
2024/01/02 05:03:54;;;;;;;0.50;0.10;;;8.10;99.90;;;;;;5034289;28;20537;-75
2024/01/02 05:06:23;;;;;;;0.50;0.10;;;8.10;99.90;;;;;;5041857;28;20472;-74
2024/01/02 05:08:51;;;;;;;0.50;0.10;;;8.10;99.90;;;;;;5044321;28;20446;-75
2024/01/02 05:11:19;;;;;;;0.50;0.10;;;8.10;99.90;;;;;;5039070;28;20484;-74
2024/01/02 05:13:47;;;;;;;0.50;0.10;;;8.10;99.90;;;;;;5048176;28;20457;-74
2024/01/02 05:16:16;;;;;;;0.50;0.10;;;8.10;99.90;;;;;;5041670;28;20555;-74
2024/01/02 05:18:44;;;;;;;0.50;0.10;;;8.10;99.90;;;;;;5041240;28;20827;-75
2024/01/02 05:21:12;;;;;;;0.50;0.10;;;8.10;99.90;;;;;;5042100;28;20480;-75
2024/01/02 05:23:40;;;;;;;0.50;0.10;;;8.10;99.90;;;;;;5041825;28;20450;-75
2024/01/02 05:26:08;;;;;;;0.50;0.10;;;8.10;99.90;;;;;;5038255;28;20498;-75
2024/01/02 05:28:36;;;;;;;0.50;0.10;;;8.10;99.90;;;;;;5044961;28;20449;-75
2024/01/02 05:31:04;;;;;;;0.50;0.10;;;8.10;99.90;;;;;;5042538;28;20868;-74
2024/01/02 05:33:33;;;;;;;0.50;0.10;;;8.10;99.90;;;;;;5043284;28;20625;-74
2024/01/02 05:36:01;;;;;;;0.50;0.30;;;8.10;99.90;;;;;;5039178;28;20474;-75
2024/01/02 05:38:29;;;;;;;0.50;0.10;;;8.10;99.90;;;;;;5049095;28;20448;-76
2024/01/02 05:40:57;;;;;;;0.50;0.10;;;8.10;99.90;;;;;;5044996;28;20437;-76
2024/01/02 05:43:25;;;;;;;0.50;0.10;;;8.20;99.90;;;;;;5046616;28;20444;-76
2024/01/02 05:45:53;;;;;;;0.50;0.17;;;8.20;99.90;;;;;;5047132;28;20846;-76
2024/01/02 05:48:21;;;;;;;0.50;0.10;;;8.20;99.90;;;;;;5047446;28;20447;-75
2024/01/02 05:50:50;;;;;;;0.50;0.10;;;8.10;99.90;;;;;;5050474;28;20464;-76
2024/01/02 05:53:18;;;;;;;0.50;0.20;;;8.10;99.90;;;;;;5041490;28;20598;-77
2024/01/02 05:55:46;;;;;;;0.50;0.10;;;8.10;99.90;;;;;;5034416;28;20453;-76
2024/01/02 05:58:14;;;;;;;0.50;0.10;;;8.10;99.90;;;;;;5048547;28;20493;-75
2024/01/02 06:00:42;;;;;;;0.50;0.10;;;8.20;99.90;;;;;;5037026;28;20441;-75
2024/01/02 06:03:10;;;;;;;0.50;0.10;;;8.10;99.90;;;;;;5044491;28;20684;-73
2024/01/02 06:05:38;;;;;;;0.50;0.10;;;8.10;99.90;;;;;;5050905;28;21071;-75
2024/01/02 06:08:07;;;;;;;0.50;0.10;;;8.10;99.90;;;;;;5043766;28;20805;-75
2024/01/02 06:10:36;;;;;;;0.50;0.10;;;8.20;99.90;;;;;;5056741;28;20486;-74
2024/01/02 06:13:04;;;;;;;0.50;0.10;;;8.20;99.90;;;;;;5042017;28;20516;-76
2024/01/02 06:15:32;;;;;;;0.50;0.10;;;8.20;99.90;;;;;;5058355;28;20501;-73
2024/01/02 06:18:00;;;;;;;0.50;0.10;;;8.10;99.90;;;;;;5052628;28;20579;-73
2024/01/02 06:20:28;;;;;;;0.50;0.10;;;8.10;99.90;;;;;;5054233;28;20445;-73
2024/01/02 06:22:56;;;;;;;0.50;0.10;;;8.10;99.90;;;;;;5053941;28;20429;-76
2024/01/02 06:25:25;;;;;;;0.50;0.10;;;8.20;99.90;;;;;;5043919;28;20452;-74
2024/01/02 06:27:53;;;;;;;0.50;0.20;;;8.20;99.90;;;;;;5043041;28;20463;-75
2024/01/02 06:30:22;;;;;;;0.50;0.20;;;8.20;1.00;;;;;;5041706;28;20469;-74
2024/01/02 06:32:50;;;;;;;0.70;0.37;;;8.10;1.00;;;;;;5046226;28;20486;-74
2024/01/02 06:35:19;;;;;;;0.50;0.10;;;8.20;1.00;;;;;;5042607;28;20609;-74
2024/01/02 06:37:47;;;;;;;0.50;0.10;;;8.10;1.00;;;;;;5042980;28;20482;-74
2024/01/02 06:40:15;;;;;;;0.50;0.10;;;8.10;1.00;;;;;;5044424;28;20449;-74
2024/01/02 06:42:45;;;;;;;0.50;0.10;;;8.20;1.00;;;;;;5034903;28;20449;-74
2024/01/02 06:45:13;;;;;;;0.60;0.30;;;8.10;1.00;;;;;;5041441;28;20829;-74
2024/01/02 06:47:41;;;;;;;0.73;0.20;;;8.10;1.00;;;;;;5036411;28;20489;-74
2024/01/02 06:50:10;;;;;;;1.00;0.40;;;8.10;1.00;;;;;;5037078;28;20914;-74
2024/01/02 06:52:38;;;;;;;0.50;0.10;;;8.10;1.00;;;;;;5042156;28;20477;-75
2024/01/02 06:55:06;;;;;;;0.50;0.10;;;8.10;1.00;;;;;;5037537;28;20480;-74
2024/01/02 06:57:34;;;;;;;0.60;0.57;;;8.20;1.00;;;;;;5047324;28;20468;-75
2024/01/02 07:00:05;;;;;;;0.50;0.20;;;8.20;1.00;;;;;;5044566;28;20518;-75
2024/01/02 07:02:33;;;;;;;0.50;0.10;;;8.20;1.00;;;;;;5035794;28;20464;-74
2024/01/02 07:05:03;;;;;;;0.50;0.10;;;8.20;1.00;;;;;;5041395;28;20433;-74
2024/01/02 07:07:31;;;;;;;0.50;0.10;;;8.20;1.00;;;;;;5040920;28;20463;-75
2024/01/02 07:09:59;;;;;;;0.50;0.20;;;8.20;1.00;;;;;;5035100;28;20482;-75
2024/01/02 07:12:28;;;;;;;0.50;0.10;;;;;;;;;;5046779;28;20452;-76
2024/01/02 07:14:57;;;;;;;0.50;0.10;;;8.30;1.00;;;;;;5044168;28;20451;-75
2024/01/02 07:17:27;;;;;;;0.50;0.10;;;8.20;1.00;;;;;;5037771;28;21039;-75
2024/01/02 07:19:55;;;;;;;3.27;3.07;;;8.20;1.00;;;;;;5041716;28;21680;-75
2024/01/02 07:22:23;;;;;;;0.50;0.10;;;8.20;1.00;;;;;;5042961;28;20503;-75
2024/01/02 07:24:50;;;;;;;0.50;0.10;;;8.20;1.00;;;;;;5038609;28;20452;-76
2024/01/02 07:27:18;;;;;;;0.50;0.10;;;8.30;1.00;;;;;;5051403;28;20809;-74
2024/01/02 07:29:47;;;;;;;0.50;0.10;;;8.30;1.00;;;;;;5055901;28;20458;-77
2024/01/02 07:32:15;;;;;;;0.50;0.40;;;8.30;1.00;;;;;;5052001;28;20950;-76
2024/01/02 07:34:44;;;;;;;0.50;0.10;;;8.30;1.00;;;;;;5046961;28;20505;-76
2024/01/02 07:37:12;;;;;;;0.50;0.10;;;8.30;1.00;;;;;;5045194;28;20562;-76
2024/01/02 07:39:40;;;;;;;0.50;0.10;;;8.30;1.00;;;;;;5051409;28;20525;-75
2024/01/02 07:42:09;;;;;;;0.50;0.10;;;8.40;1.00;;;;;;5043737;28;20533;-74
2024/01/02 07:44:37;;;;;;;0.50;0.10;;;8.40;1.00;;;;;;5043753;28;20454;-75
2024/01/02 07:47:05;;;;;;;0.50;0.10;;;8.40;1.00;;;;;;5042048;28;21043;-74
2024/01/02 07:49:33;;;;;;;0.50;0.10;;;8.40;1.00;;;;;;5040848;28;20452;-75
2024/01/02 07:52:02;;;;;;;0.50;0.10;;;8.50;1.00;;;;;;5047526;28;20965;-75
2024/01/02 07:54:30;;;;;;;0.50;0.17;;;8.50;1.00;;;;;;5050666;28;20507;-76
2024/01/02 07:56:58;;;;;;;0.50;0.10;;;8.50;1.00;;;;;;5048043;28;20485;-75
2024/01/02 07:59:31;;;;;;;0.50;0.10;;;8.50;1.00;;;;;;5051495;28;20471;-77
2024/01/02 08:01:59;;;;;;;0.50;0.10;;;8.50;1.00;;;;;;5039337;28;20448;-75
2024/01/02 08:04:29;;;;;;;0.50;0.10;;;8.50;1.00;;;;;;5044009;28;20459;-75
2024/01/02 08:06:59;;;;;;;0.50;0.10;;;8.60;1.00;;;;;;5044931;28;20563;-75
2024/01/02 08:09:29;;;;;;;0.50;0.10;;;8.60;1.00;;;;;;5036624;28;20460;-76
2024/01/02 08:11:57;;;;;;;0.50;0.10;;;8.60;1.00;;;;;;5045952;28;20474;-76
2024/01/02 08:14:25;;;;;;;0.50;0.10;;;8.60;1.00;;;;;;5045919;28;20539;-73
2024/01/02 08:16:53;;;;;;;0.50;0.10;;;8.60;1.00;;;;;;5051883;28;20467;-75
2024/01/02 08:19:21;;;;;;;0.50;0.10;;;8.70;1.00;;;;;;5048827;28;20839;-74
2024/01/02 08:21:49;;;;;;;0.50;0.10;;;8.70;1.00;;;;;;5049329;28;20457;-74
2024/01/02 08:24:17;;;;;;;0.50;0.10;;;8.70;1.00;;;;;;5045106;28;20468;-74
2024/01/02 08:26:46;;;;;;;0.70;0.37;;;8.80;1.00;;;;;;5042861;28;20515;-75
2024/01/02 08:29:15;;;;;;;0.50;0.10;;;;;;;;;;5044439;28;20461;-76
2024/01/02 08:31:43;;;;;;;0.90;0.80;;;8.90;1.00;;;;;;5037737;28;20444;-75
2024/01/02 08:34:11;;;;;;;0.50;0.10;;;8.90;1.00;;;;;;5043259;28;20537;-75
2024/01/02 08:36:39;;;;;;;0.50;0.10;;;;;;;;;;5038301;28;20489;-79
2024/01/02 08:39:07;;;;;;;1.33;0.77;;;9.00;1.00;;;;;;5041664;28;21023;-75
2024/01/02 08:41:36;;;;;;;0.60;0.20;;;9.00;1.00;;;;;;5042916;28;20531;-76
2024/01/02 08:44:06;;;;;;;0.50;0.10;;;9.10;1.00;;;;;;5034672;28;20554;-76
2024/01/02 08:46:34;;;;;;;0.50;0.10;;;9.10;1.00;;;;;;5041874;28;20549;-78
2024/01/02 08:49:02;;;;;;;0.50;0.10;;;9.20;1.00;;;;;;5044977;28;20451;-76
2024/01/02 08:51:30;;;;;;;0.50;0.10;;;9.20;1.00;;;;;;5045255;28;20922;-77
2024/01/02 08:53:58;;;;;;;0.50;0.10;;;9.30;1.00;;;;;;5045592;28;20488;-77
2024/01/02 08:56:26;;;;;;;0.50;0.10;;;9.30;1.00;;;;;;5045722;28;20491;-76
2024/01/02 08:58:54;;;;;;;0.50;0.10;;;9.30;1.00;;;;;;5038091;28;20503;-76
2024/01/02 09:01:24;;;;;;;0.50;0.10;;;9.40;1.00;;;;;;5046953;28;20522;-74
2024/01/02 09:03:53;;;;;;;0.50;0.20;;;9.40;1.00;;;;;;5045611;28;20925;-77
2024/01/02 09:06:22;;;;;;;0.50;0.10;;;9.50;1.00;;;;;;5050383;28;20468;-76
2024/01/02 09:08:50;;;;;;;0.50;0.20;;;9.50;1.00;;;;;;5045000;28;20441;-77
2024/01/02 09:11:20;;;;;;;0.50;0.10;;;8.60;1.00;;;;;;5041478;28;20531;-77
2024/01/02 09:13:48;;;;;;;0.50;0.10;;;9.50;1.00;;;;;;5047740;28;20482;-77
2024/01/02 09:16:17;;;;;;;0.50;0.10;;;9.60;99.90;;;;;;5050652;28;20567;-77
2024/01/02 09:18:46;;;;;;;0.50;0.10;;;9.60;99.90;;;;;;5034343;28;20599;-77
2024/01/02 09:21:14;;;;;;;0.87;0.30;;;9.60;99.90;;;;;;5043597;28;20470;-78
2024/01/02 09:23:42;;;;;;;0.50;0.20;;;9.70;99.90;;;;;;5050787;28;20810;-78
2024/01/02 09:26:15;;;;;;;0.50;0.20;;;9.70;99.90;;;;;;5056010;28;20456;-78
2024/01/02 09:28:44;;;;;;;0.50;0.10;;;9.70;99.90;;;;;;5055978;28;20462;-78
2024/01/02 09:31:12;;;;;;;0.50;0.10;;;9.70;99.90;;;;;;5047170;28;20445;-78
2024/01/02 09:33:42;;;;;;;0.60;0.30;;;9.70;99.90;;;;;;5036970;28;20452;-77
2024/01/02 09:36:14;;;;;;;0.50;0.10;;;9.80;99.90;;;;;;5043744;28;20524;-79
2024/01/02 09:38:42;;;;;;;0.50;0.10;;;9.80;99.90;;;;;;5042130;28;20449;-78
2024/01/02 09:41:23;;;;;;;0.60;0.23;;;9.80;99.90;;;;;;5041631;28;20476;-76
2024/01/02 09:44:07;;;;;;;0.50;0.10;;;9.80;99.90;;;;;;5041076;28;20436;-78
2024/01/02 09:46:40;;;;;;;0.50;0.10;;;9.80;99.90;;;;;;5050055;28;20482;-77
2024/01/02 09:49:25;;;;;;;0.50;0.20;;;9.80;99.90;;;;;;5047405;28;20502;-78
2024/01/02 09:52:13;;;;;;;0.50;0.10;;;9.80;99.90;;;;;;5047991;28;20487;-78
2024/01/02 09:54:51;;;;;;;0.50;0.10;;;9.90;99.90;;;;;;5046818;28;20479;-76
2024/01/02 09:57:26;;;;;;;0.50;0.10;;;9.90;99.90;;;;;;5046099;28;20479;-77
2024/01/02 10:00:05;;;;;;;0.50;0.10;;;9.90;99.90;;;;;;5039341;28;20449;-75
2024/01/02 10:03:01;;;;;;;0.50;0.10;;;9.90;99.90;;;;;;5036365;28;20448;-75
2024/01/02 10:05:43;;;;;;;0.50;0.10;;;9.80;99.90;;;;;;5036283;28;20461;-76
2024/01/02 10:08:38;;;;;;;0.50;0.10;;;9.90;99.90;;;;;;5039032;28;20809;-75
2024/01/02 10:11:16;;;;;;;0.50;0.10;;;9.90;99.90;;;;;;5040008;28;20448;-77
2024/01/02 10:13:51;;;;;;;0.50;0.20;;;9.90;99.90;;;;;;5044443;28;20433;-77
2024/01/02 10:16:28;;;;;;;0.50;0.10;;;9.90;99.90;;;;;;5043369;28;20522;-77
2024/01/02 10:19:03;;;;;;;0.50;0.10;;;9.90;99.90;;;;;;5046332;28;20880;-76
2024/01/02 10:21:41;;;;;;;0.50;0.10;;;9.90;99.90;;;;;;5042731;28;20463;-76
2024/01/02 10:24:24;;;;;;;0.50;0.30;;;9.90;99.90;;;;;;5043208;28;20522;-76
2024/01/02 10:27:04;;;;;;;24.40;2.40;;;9.90;99.90;;;;;;5045426;28;20612;-73
2024/01/02 10:29:39;;;;;;;0.50;0.20;;;9.90;99.90;;;;;;5051689;28;20519;-76
2024/01/02 10:32:12;;;;;;;0.50;0.10;;;9.90;99.90;;;;;;5045466;28;20455;-76
2024/01/02 10:34:51;;;;;;;0.50;0.20;;;9.90;99.90;;;;;;5046969;28;20479;-76
2024/01/02 10:37:24;;;;;;;0.50;0.10;;;9.90;99.90;;;;;;5052710;28;20904;-76
2024/01/02 10:40:02;;;;;;;0.50;0.10;;;9.90;99.90;;;;;;5042909;28;20493;-76
2024/01/02 10:42:38;;;;;;;0.50;0.10;;;9.90;99.90;;;;;;5055252;28;20520;-76
2024/01/02 10:45:25;;;;;;;0.50;0.10;;;10.00;99.90;;;;;;5050607;28;20449;-75
2024/01/02 10:48:19;;;;;;;0.50;0.10;;;10.00;99.90;;;;;;5049917;28;20547;-77
2024/01/02 10:50:54;;;;;;;0.50;0.10;;;10.00;99.90;;;;;;5059543;28;20447;-77
2024/01/02 10:53:32;;;;;;;0.50;0.10;;;10.00;99.90;;;;;;5055315;28;20510;-76
2024/01/02 10:56:10;;;;;;;0.50;0.10;;;10.00;99.90;;;;;;5054905;28;20508;-76
2024/01/02 10:58:46;;;;;;;0.50;0.10;;;10.00;99.90;;;;;;5043266;28;20445;-74
2024/01/02 11:01:19;;;;;;;0.50;0.10;;;10.00;99.90;;;;;;5051273;28;20455;-76
2024/01/02 11:03:55;;;;;;;0.50;0.10;;;10.00;99.90;;;;;;5041248;28;20468;-75
2024/01/02 11:06:32;;;;;;;0.50;0.10;;;10.10;99.90;;;;;;5048464;28;20488;-76
2024/01/02 11:09:06;;;;;;;0.50;0.10;;;10.10;99.90;;;;;;5049630;28;20455;-75
2024/01/02 11:11:37;;;;;;;0.50;0.10;;;;;;;;;;5048368;28;20450;-75
2024/01/02 11:14:07;;;;;;;0.50;0.10;;;10.10;99.90;;;;;;5039174;28;20459;-76
2024/01/02 11:16:41;;;;;;;0.50;0.10;;;10.10;99.90;;;;;;5042615;28;20538;-78
2024/01/02 11:19:14;;;;;;;0.50;0.10;;;10.10;99.90;;;;;;5044325;28;20472;-75
2024/01/02 11:21:51;;;;;;;0.50;0.10;;;10.10;99.90;;;;;;5038374;28;20449;-76
2024/01/02 11:24:22;;;;;;;0.50;0.10;;;10.10;99.90;;;;;;5038903;28;20557;-76
2024/01/02 11:26:56;;;;;;;0.50;0.10;;;10.10;99.90;;;;;;5041418;28;20476;-77
2024/01/02 11:29:27;;;;;;;0.50;0.10;;;10.10;99.90;;;;;;5038486;28;20840;-78
2024/01/02 11:31:57;;;;;;;0.50;0.10;;;10.10;99.90;;;;;;5050812;28;20442;-75
2024/01/02 11:34:43;;;;;;;0.50;0.10;;;10.10;99.90;;;;;;5045836;28;20445;-74
2024/01/02 11:37:26;;;;;;;0.50;0.10;;;10.10;99.90;;;;;;5044787;28;20552;-77
2024/01/02 11:40:04;;;;;;;0.50;0.10;;;10.10;99.90;;;;;;5045894;28;20467;-77
2024/01/02 11:42:50;;;;;;;0.50;0.10;;;10.10;99.90;;;;;;5041027;28;20886;-77
2024/01/02 11:45:20;;;;;;;0.50;0.10;;;10.10;99.90;;;;;;5051540;28;20442;-77
2024/01/02 11:48:03;;;;;;;0.50;0.10;;;10.10;99.90;;;;;;5045513;28;20447;-79
2024/01/02 11:50:42;;;;;;;0.50;0.10;;;10.10;99.90;;;;;;5041396;28;20441;-77
2024/01/02 11:53:18;;;;;;;0.50;0.10;;;10.10;99.90;;;;;;5040509;28;20462;-78
2024/01/02 11:55:50;;;;;;;0.50;0.10;;;10.10;99.90;;;;;;5042056;28;20479;-76
2024/01/02 11:58:26;;;;;;;0.50;0.10;;;10.40;99.90;;;;;;5041322;28;20477;-77
2024/01/02 12:01:10;;;;;;;0.50;0.10;;;10.10;99.90;;;;;;5038739;28;20456;-77
2024/01/02 12:03:50;;;;;;;0.50;0.10;;;10.10;99.90;;;;;;5050016;28;20440;-77
2024/01/02 12:06:25;;;;;;;0.50;0.10;;;10.10;99.90;;;;;;5051222;28;20481;-77
2024/01/02 12:09:04;;;;;;;0.50;0.10;;;10.10;99.90;;;;;;5040432;28;20458;-77
2024/01/02 12:11:38;;;;;;;0.50;0.10;;;10.10;99.90;;;;;;5040859;28;20829;-75
2024/01/02 12:14:19;;;;;;;0.50;0.10;;;10.10;99.90;;;;;;5051516;28;20443;-77
2024/01/02 12:16:48;;;;;;;0.50;0.10;;;10.10;99.90;;;;;;5054541;28;20493;-77
2024/01/02 12:19:21;;;;;;;0.50;0.10;;;10.10;99.90;;;;;;5044068;28;20532;-76
2024/01/02 12:21:53;;;;;;;0.50;0.10;;;10.10;99.90;;;;;;5049876;28;20458;-77
2024/01/02 12:24:22;;;;;;;0.50;0.10;;;10.10;99.90;;;;;;5046317;28;20549;-76
2024/01/02 12:26:52;;;;;;;0.50;0.10;;;10.10;99.90;;;;;;5039759;28;20502;-76
2024/01/02 12:29:32;;;;;;;0.50;0.10;;;10.10;99.90;;;;;;5037555;28;20542;-77
2024/01/02 12:32:05;;;;;;;0.50;0.10;;;10.10;99.90;;;;;;5038386;28;20456;-75
2024/01/02 12:34:42;;;;;;;0.50;0.10;;;10.10;99.90;;;;;;5053468;28;20451;-77
2024/01/02 12:37:19;;;;;;;0.50;0.10;;;10.00;99.90;;;;;;5044574;28;20541;-76
2024/01/02 12:39:52;;;;;;;0.50;0.10;;;10.00;99.90;;;;;;5040412;28;20528;-75
2024/01/02 12:42:25;;;;;;;0.50;0.10;;;10.00;99.90;;;;;;5036289;28;20486;-76
2024/01/02 12:45:02;;;;;;;0.50;0.10;;;10.00;99.90;;;;;;5051216;28;20467;-74
2024/01/02 12:47:36;;;;;;;0.50;0.10;;;10.00;99.90;;;;;;5064256;28;20500;-75
2024/01/02 12:50:08;;;;;;;0.50;0.10;;;9.90;99.90;;;;;;5052395;28;20443;-73
2024/01/02 12:52:40;;;;;;;0.50;0.10;;;9.90;99.90;;;;;;5059178;28;20432;-77
2024/01/02 12:55:12;;;;;;;0.50;0.10;;;9.90;99.90;;;;;;5060020;28;20453;-76
2024/01/02 12:57:40;;;;;;;0.50;0.10;;;9.90;1.00;;;;;;5061391;28;20464;-75
2024/01/02 13:00:13;;;;;;;0.50;0.10;;;9.90;1.00;;;;;;5057276;28;20533;-74
2024/01/02 13:02:41;;;;;;;0.50;0.10;;;9.90;1.00;;;;;;5055566;28;20442;-74
2024/01/02 13:05:11;;;;;;;0.50;0.10;;;9.80;1.00;;;;;;5059090;28;20438;-75
2024/01/02 13:07:42;;;;;;;1.20;0.33;;;9.90;1.00;;;;;;5057429;28;20448;-74
2024/01/02 13:10:11;;;;;;;0.50;0.10;;;9.80;1.00;;;;;;5054945;28;20452;-75
2024/01/02 13:12:40;;;;;;;0.50;0.10;;;9.80;1.00;;;;;;5050968;28;20441;-75
2024/01/02 13:15:10;;;;;;;0.50;0.10;;;9.80;1.00;;;;;;5051344;28;20444;-74
2024/01/02 13:17:38;;;;;;;0.50;0.10;;;9.80;1.00;;;;;;5050501;28;20481;-75